sensor_id;sensor_type;location;lat;lon;timestamp;P1;durP1;ratioP1;P2;durP2;ratioP2
51030;SDS011;37058;41.442;23.240;2022-10-12T00:02:06;18.15;;;10.20;;
51030;SDS011;37058;41.442;23.240;2022-10-12T00:04:33;15.35;;;8.85;;
51030;SDS011;37058;41.442;23.240;2022-10-12T00:07:02;16.30;;;11.18;;
51030;SDS011;37058;41.442;23.240;2022-10-12T00:09:29;15.10;;;10.25;;
51030;SDS011;37058;41.442;23.240;2022-10-12T00:11:59;15.77;;;10.88;;
51030;SDS011;37058;41.442;23.240;2022-10-12T00:14:38;17.88;;;9.65;;
51030;SDS011;37058;41.442;23.240;2022-10-12T00:17:13;12.15;;;10.02;;
51030;SDS011;37058;41.442;23.240;2022-10-12T00:19:51;13.75;;;9.95;;
51030;SDS011;37058;41.442;23.240;2022-10-12T00:22:21;16.02;;;10.82;;
51030;SDS011;37058;41.442;23.240;2022-10-12T00:24:49;13.90;;;10.38;;
51030;SDS011;37058;41.442;23.240;2022-10-12T00:27:17;15.45;;;8.93;;
51030;SDS011;37058;41.442;23.240;2022-10-12T00:29:47;14.85;;;10.50;;
51030;SDS011;37058;41.442;23.240;2022-10-12T00:32:20;12.95;;;9.27;;
51030;SDS011;37058;41.442;23.240;2022-10-12T00:34:53;19.27;;;11.20;;
51030;SDS011;37058;41.442;23.240;2022-10-12T00:37:26;16.83;;;10.30;;
51030;SDS011;37058;41.442;23.240;2022-10-12T00:39:54;15.90;;;9.25;;
51030;SDS011;37058;41.442;23.240;2022-10-12T00:42:27;21.45;;;11.18;;
51030;SDS011;37058;41.442;23.240;2022-10-12T00:44:58;12.57;;;9.07;;
51030;SDS011;37058;41.442;23.240;2022-10-12T00:47:35;11.48;;;9.38;;
51030;SDS011;37058;41.442;23.240;2022-10-12T00:50:23;16.95;;;9.50;;
51030;SDS011;37058;41.442;23.240;2022-10-12T00:53:08;14.63;;;9.82;;
51030;SDS011;37058;41.442;23.240;2022-10-12T00:55:42;13.27;;;10.20;;
51030;SDS011;37058;41.442;23.240;2022-10-12T00:58:20;15.13;;;10.10;;
51030;SDS011;37058;41.442;23.240;2022-10-12T01:00:50;13.80;;;9.60;;
51030;SDS011;37058;41.442;23.240;2022-10-12T01:03:20;12.25;;;10.25;;
51030;SDS011;37058;41.442;23.240;2022-10-12T01:05:49;11.77;;;9.13;;
51030;SDS011;37058;41.442;23.240;2022-10-12T01:08:17;15.98;;;9.23;;
51030;SDS011;37058;41.442;23.240;2022-10-12T01:10:43;15.80;;;10.15;;
51030;SDS011;37058;41.442;23.240;2022-10-12T01:13:12;13.85;;;9.82;;
51030;SDS011;37058;41.442;23.240;2022-10-12T01:16:03;15.27;;;10.82;;
51030;SDS011;37058;41.442;23.240;2022-10-12T01:22:06;16.13;;;10.77;;
51030;SDS011;37058;41.442;23.240;2022-10-12T01:24:50;14.68;;;9.38;;
51030;SDS011;37058;41.442;23.240;2022-10-12T01:27:48;17.98;;;10.63;;
51030;SDS011;37058;41.442;23.240;2022-10-12T01:30:26;14.52;;;10.43;;
51030;SDS011;37058;41.442;23.240;2022-10-12T01:33:27;16.27;;;11.27;;
51030;SDS011;37058;41.442;23.240;2022-10-12T01:36:18;15.02;;;9.65;;
51030;SDS011;37058;41.442;23.240;2022-10-12T01:39:24;19.08;;;12.52;;
51030;SDS011;37058;41.442;23.240;2022-10-12T01:42:33;15.52;;;10.90;;
51030;SDS011;37058;41.442;23.240;2022-10-12T01:45:06;15.35;;;10.45;;
51030;SDS011;37058;41.442;23.240;2022-10-12T01:47:49;18.88;;;10.90;;
51030;SDS011;37058;41.442;23.240;2022-10-12T01:50:24;17.65;;;10.65;;
51030;SDS011;37058;41.442;23.240;2022-10-12T01:59:42;14.38;;;10.10;;
51030;SDS011;37058;41.442;23.240;2022-10-12T02:05:46;17.42;;;12.18;;
51030;SDS011;37058;41.442;23.240;2022-10-12T02:08:44;15.13;;;10.93;;
51030;SDS011;37058;41.442;23.240;2022-10-12T02:11:25;12.63;;;10.05;;
51030;SDS011;37058;41.442;23.240;2022-10-12T02:14:21;13.52;;;10.00;;
51030;SDS011;37058;41.442;23.240;2022-10-12T02:16:59;14.90;;;9.77;;
51030;SDS011;37058;41.442;23.240;2022-10-12T02:19:30;16.98;;;9.77;;
51030;SDS011;37058;41.442;23.240;2022-10-12T02:22:05;18.27;;;10.13;;
51030;SDS011;37058;41.442;23.240;2022-10-12T02:24:33;16.63;;;10.32;;
51030;SDS011;37058;41.442;23.240;2022-10-12T02:27:04;14.93;;;10.18;;
51030;SDS011;37058;41.442;23.240;2022-10-12T02:29:37;18.35;;;12.18;;
51030;SDS011;37058;41.442;23.240;2022-10-12T02:32:27;18.67;;;11.20;;
51030;SDS011;37058;41.442;23.240;2022-10-12T02:35:24;19.83;;;12.43;;
51030;SDS011;37058;41.442;23.240;2022-10-12T02:38:18;18.38;;;11.93;;
51030;SDS011;37058;41.442;23.240;2022-10-12T02:41:03;17.23;;;11.70;;
51030;SDS011;37058;41.442;23.240;2022-10-12T02:43:45;19.67;;;12.18;;
51030;SDS011;37058;41.442;23.240;2022-10-12T02:46:48;16.35;;;10.52;;
51030;SDS011;37058;41.442;23.240;2022-10-12T02:49:18;15.60;;;10.63;;
51030;SDS011;37058;41.442;23.240;2022-10-12T02:51:50;15.90;;;10.02;;
51030;SDS011;37058;41.442;23.240;2022-10-12T02:54:20;15.73;;;10.52;;
51030;SDS011;37058;41.442;23.240;2022-10-12T02:56:48;15.63;;;10.43;;
51030;SDS011;37058;41.442;23.240;2022-10-12T02:59:17;14.25;;;11.05;;
51030;SDS011;37058;41.442;23.240;2022-10-12T03:01:45;13.05;;;9.55;;
51030;SDS011;37058;41.442;23.240;2022-10-12T03:04:15;16.33;;;11.13;;
51030;SDS011;37058;41.442;23.240;2022-10-12T03:06:51;16.13;;;11.95;;
51030;SDS011;37058;41.442;23.240;2022-10-12T03:09:19;16.75;;;11.48;;
51030;SDS011;37058;41.442;23.240;2022-10-12T03:11:53;17.75;;;12.65;;
51030;SDS011;37058;41.442;23.240;2022-10-12T03:14:22;18.48;;;12.60;;
51030;SDS011;37058;41.442;23.240;2022-10-12T03:16:51;18.38;;;10.70;;
51030;SDS011;37058;41.442;23.240;2022-10-12T03:19:20;18.17;;;11.45;;
51030;SDS011;37058;41.442;23.240;2022-10-12T03:21:52;19.75;;;11.10;;
51030;SDS011;37058;41.442;23.240;2022-10-12T03:24:25;21.17;;;11.68;;
51030;SDS011;37058;41.442;23.240;2022-10-12T03:26:56;18.52;;;11.55;;
51030;SDS011;37058;41.442;23.240;2022-10-12T03:29:26;18.02;;;12.35;;
51030;SDS011;37058;41.442;23.240;2022-10-12T03:31:55;16.17;;;11.40;;
51030;SDS011;37058;41.442;23.240;2022-10-12T03:34:24;17.73;;;11.73;;
51030;SDS011;37058;41.442;23.240;2022-10-12T03:36:56;18.60;;;11.25;;
51030;SDS011;37058;41.442;23.240;2022-10-12T03:39:23;18.38;;;11.65;;
51030;SDS011;37058;41.442;23.240;2022-10-12T03:41:51;16.63;;;11.52;;
51030;SDS011;37058;41.442;23.240;2022-10-12T03:44:20;17.58;;;11.52;;
51030;SDS011;37058;41.442;23.240;2022-10-12T03:46:48;15.73;;;11.70;;
51030;SDS011;37058;41.442;23.240;2022-10-12T03:49:21;17.98;;;10.77;;
51030;SDS011;37058;41.442;23.240;2022-10-12T03:51:53;19.40;;;12.00;;
51030;SDS011;37058;41.442;23.240;2022-10-12T03:54:21;20.58;;;12.27;;
51030;SDS011;37058;41.442;23.240;2022-10-12T03:56:50;20.98;;;11.48;;
51030;SDS011;37058;41.442;23.240;2022-10-12T03:59:22;15.68;;;11.57;;
51030;SDS011;37058;41.442;23.240;2022-10-12T04:01:51;18.50;;;11.27;;
51030;SDS011;37058;41.442;23.240;2022-10-12T04:04:26;15.60;;;11.80;;
51030;SDS011;37058;41.442;23.240;2022-10-12T04:06:53;18.73;;;11.33;;
51030;SDS011;37058;41.442;23.240;2022-10-12T04:09:24;13.02;;;10.50;;
51030;SDS011;37058;41.442;23.240;2022-10-12T04:11:52;17.77;;;10.30;;
51030;SDS011;37058;41.442;23.240;2022-10-12T04:14:21;16.30;;;11.03;;
51030;SDS011;37058;41.442;23.240;2022-10-12T04:16:52;13.93;;;10.40;;
51030;SDS011;37058;41.442;23.240;2022-10-12T04:19:21;10.60;;;8.15;;
51030;SDS011;37058;41.442;23.240;2022-10-12T04:21:51;15.85;;;9.60;;
51030;SDS011;37058;41.442;23.240;2022-10-12T04:24:21;14.35;;;8.85;;
51030;SDS011;37058;41.442;23.240;2022-10-12T04:26:48;12.77;;;8.68;;
51030;SDS011;37058;41.442;23.240;2022-10-12T04:29:17;11.30;;;8.23;;
51030;SDS011;37058;41.442;23.240;2022-10-12T04:31:49;17.50;;;9.35;;
51030;SDS011;37058;41.442;23.240;2022-10-12T04:34:23;12.73;;;8.07;;
51030;SDS011;37058;41.442;23.240;2022-10-12T04:36:55;15.18;;;9.15;;
51030;SDS011;37058;41.442;23.240;2022-10-12T04:39:24;16.13;;;10.00;;
51030;SDS011;37058;41.442;23.240;2022-10-12T04:41:53;12.77;;;8.80;;
51030;SDS011;37058;41.442;23.240;2022-10-12T04:44:23;17.55;;;9.13;;
51030;SDS011;37058;41.442;23.240;2022-10-12T04:46:52;18.45;;;11.57;;
51030;SDS011;37058;41.442;23.240;2022-10-12T04:49:20;21.80;;;10.77;;
51030;SDS011;37058;41.442;23.240;2022-10-12T04:51:46;22.88;;;12.65;;
51030;SDS011;37058;41.442;23.240;2022-10-12T04:54:14;20.95;;;11.75;;
51030;SDS011;37058;41.442;23.240;2022-10-12T04:56:42;13.85;;;9.60;;
51030;SDS011;37058;41.442;23.240;2022-10-12T04:59:11;14.00;;;8.55;;
51030;SDS011;37058;41.442;23.240;2022-10-12T05:01:39;12.95;;;9.27;;
51030;SDS011;37058;41.442;23.240;2022-10-12T05:04:07;12.02;;;7.68;;
51030;SDS011;37058;41.442;23.240;2022-10-12T05:06:33;11.20;;;8.70;;
51030;SDS011;37058;41.442;23.240;2022-10-12T05:09:00;14.27;;;8.85;;
51030;SDS011;37058;41.442;23.240;2022-10-12T05:11:27;11.63;;;7.28;;
51030;SDS011;37058;41.442;23.240;2022-10-12T05:13:54;16.45;;;9.13;;
51030;SDS011;37058;41.442;23.240;2022-10-12T05:16:21;15.02;;;9.35;;
51030;SDS011;37058;41.442;23.240;2022-10-12T05:18:48;12.95;;;9.85;;
51030;SDS011;37058;41.442;23.240;2022-10-12T05:21:16;18.20;;;10.57;;
51030;SDS011;37058;41.442;23.240;2022-10-12T05:23:49;13.10;;;9.20;;
51030;SDS011;37058;41.442;23.240;2022-10-12T05:26:17;14.98;;;9.80;;
51030;SDS011;37058;41.442;23.240;2022-10-12T05:28:45;18.40;;;10.80;;
51030;SDS011;37058;41.442;23.240;2022-10-12T05:31:12;19.38;;;11.60;;
51030;SDS011;37058;41.442;23.240;2022-10-12T05:33:39;16.10;;;10.63;;
51030;SDS011;37058;41.442;23.240;2022-10-12T05:36:07;21.23;;;12.48;;
51030;SDS011;37058;41.442;23.240;2022-10-12T05:38:35;23.73;;;12.10;;
51030;SDS011;37058;41.442;23.240;2022-10-12T05:41:01;21.33;;;13.43;;
51030;SDS011;37058;41.442;23.240;2022-10-12T05:43:28;17.60;;;12.93;;
51030;SDS011;37058;41.442;23.240;2022-10-12T05:45:55;24.92;;;13.60;;
51030;SDS011;37058;41.442;23.240;2022-10-12T05:48:21;18.92;;;12.73;;
51030;SDS011;37058;41.442;23.240;2022-10-12T05:50:50;18.83;;;12.88;;
51030;SDS011;37058;41.442;23.240;2022-10-12T05:53:20;19.08;;;12.88;;
51030;SDS011;37058;41.442;23.240;2022-10-12T05:56:05;15.93;;;11.75;;
51030;SDS011;37058;41.442;23.240;2022-10-12T05:58:34;18.73;;;11.55;;
51030;SDS011;37058;41.442;23.240;2022-10-12T06:01:08;15.90;;;11.13;;
51030;SDS011;37058;41.442;23.240;2022-10-12T06:03:37;16.65;;;12.23;;
51030;SDS011;37058;41.442;23.240;2022-10-12T06:06:04;18.15;;;11.63;;
51030;SDS011;37058;41.442;23.240;2022-10-12T06:08:33;18.25;;;12.10;;
51030;SDS011;37058;41.442;23.240;2022-10-12T06:11:00;19.13;;;13.10;;
51030;SDS011;37058;41.442;23.240;2022-10-12T06:13:28;14.75;;;11.35;;
51030;SDS011;37058;41.442;23.240;2022-10-12T06:15:55;16.20;;;11.93;;
51030;SDS011;37058;41.442;23.240;2022-10-12T06:18:22;21.65;;;13.85;;
51030;SDS011;37058;41.442;23.240;2022-10-12T06:20:49;22.63;;;14.98;;
51030;SDS011;37058;41.442;23.240;2022-10-12T06:23:18;19.13;;;12.93;;
51030;SDS011;37058;41.442;23.240;2022-10-12T06:25:45;19.85;;;13.55;;
51030;SDS011;37058;41.442;23.240;2022-10-12T06:28:16;17.98;;;12.70;;
51030;SDS011;37058;41.442;23.240;2022-10-12T06:31:03;20.35;;;12.80;;
51030;SDS011;37058;41.442;23.240;2022-10-12T06:33:30;17.33;;;13.27;;
51030;SDS011;37058;41.442;23.240;2022-10-12T06:35:57;19.95;;;12.65;;
51030;SDS011;37058;41.442;23.240;2022-10-12T06:38:24;16.05;;;11.30;;
51030;SDS011;37058;41.442;23.240;2022-10-12T06:40:52;17.83;;;11.15;;
51030;SDS011;37058;41.442;23.240;2022-10-12T06:43:19;19.77;;;11.98;;
51030;SDS011;37058;41.442;23.240;2022-10-12T06:45:48;17.63;;;12.40;;
51030;SDS011;37058;41.442;23.240;2022-10-12T06:48:16;17.58;;;12.07;;
51030;SDS011;37058;41.442;23.240;2022-10-12T06:50:44;24.38;;;12.77;;
51030;SDS011;37058;41.442;23.240;2022-10-12T06:53:12;17.63;;;11.40;;
51030;SDS011;37058;41.442;23.240;2022-10-12T06:55:40;17.83;;;10.88;;
51030;SDS011;37058;41.442;23.240;2022-10-12T06:58:08;16.73;;;11.85;;
51030;SDS011;37058;41.442;23.240;2022-10-12T07:00:35;16.65;;;11.90;;
51030;SDS011;37058;41.442;23.240;2022-10-12T07:03:02;21.33;;;12.45;;
51030;SDS011;37058;41.442;23.240;2022-10-12T07:05:29;14.82;;;10.50;;
51030;SDS011;37058;41.442;23.240;2022-10-12T07:07:55;12.05;;;9.35;;
51030;SDS011;37058;41.442;23.240;2022-10-12T07:10:22;20.13;;;10.75;;
51030;SDS011;37058;41.442;23.240;2022-10-12T07:12:49;13.60;;;10.13;;
51030;SDS011;37058;41.442;23.240;2022-10-12T07:15:17;15.90;;;10.65;;
51030;SDS011;37058;41.442;23.240;2022-10-12T07:17:44;17.48;;;10.43;;
51030;SDS011;37058;41.442;23.240;2022-10-12T07:20:11;15.32;;;9.55;;
51030;SDS011;37058;41.442;23.240;2022-10-12T07:22:38;15.23;;;9.60;;
51030;SDS011;37058;41.442;23.240;2022-10-12T07:25:04;17.50;;;10.05;;
51030;SDS011;37058;41.442;23.240;2022-10-12T07:27:31;14.88;;;9.52;;
51030;SDS011;37058;41.442;23.240;2022-10-12T07:29:58;13.88;;;9.02;;
51030;SDS011;37058;41.442;23.240;2022-10-12T07:32:27;14.38;;;8.30;;
51030;SDS011;37058;41.442;23.240;2022-10-12T07:34:53;13.30;;;9.50;;
51030;SDS011;37058;41.442;23.240;2022-10-12T07:37:21;11.30;;;8.25;;
51030;SDS011;37058;41.442;23.240;2022-10-12T07:39:49;13.60;;;9.38;;
51030;SDS011;37058;41.442;23.240;2022-10-12T07:42:21;12.35;;;9.10;;
51030;SDS011;37058;41.442;23.240;2022-10-12T07:44:48;14.43;;;9.05;;
51030;SDS011;37058;41.442;23.240;2022-10-12T07:47:14;14.82;;;10.13;;
51030;SDS011;37058;41.442;23.240;2022-10-12T07:49:41;15.10;;;8.77;;
51030;SDS011;37058;41.442;23.240;2022-10-12T07:52:08;14.15;;;9.63;;
51030;SDS011;37058;41.442;23.240;2022-10-12T07:54:41;15.25;;;9.02;;
51030;SDS011;37058;41.442;23.240;2022-10-12T07:57:17;16.02;;;10.43;;
51030;SDS011;37058;41.442;23.240;2022-10-12T07:59:52;16.90;;;10.60;;
51030;SDS011;37058;41.442;23.240;2022-10-12T08:02:34;12.27;;;9.43;;
51030;SDS011;37058;41.442;23.240;2022-10-12T08:05:07;19.08;;;9.70;;
51030;SDS011;37058;41.442;23.240;2022-10-12T08:07:41;13.68;;;9.23;;
51030;SDS011;37058;41.442;23.240;2022-10-12T08:10:14;13.27;;;10.15;;
51030;SDS011;37058;41.442;23.240;2022-10-12T08:12:54;15.05;;;10.10;;
51030;SDS011;37058;41.442;23.240;2022-10-12T08:15:29;14.80;;;9.05;;
51030;SDS011;37058;41.442;23.240;2022-10-12T08:18:05;14.50;;;9.40;;
51030;SDS011;37058;41.442;23.240;2022-10-12T08:20:40;13.60;;;9.38;;
51030;SDS011;37058;41.442;23.240;2022-10-12T08:23:21;12.65;;;8.77;;
51030;SDS011;37058;41.442;23.240;2022-10-12T08:25:57;14.05;;;9.48;;
51030;SDS011;37058;41.442;23.240;2022-10-12T08:28:35;13.10;;;9.18;;
51030;SDS011;37058;41.442;23.240;2022-10-12T08:31:05;13.63;;;9.90;;
51030;SDS011;37058;41.442;23.240;2022-10-12T08:33:40;14.45;;;9.90;;
51030;SDS011;37058;41.442;23.240;2022-10-12T08:36:13;13.23;;;9.48;;
51030;SDS011;37058;41.442;23.240;2022-10-12T08:38:54;14.05;;;9.70;;
51030;SDS011;37058;41.442;23.240;2022-10-12T08:44:54;12.70;;;8.95;;
51030;SDS011;37058;41.442;23.240;2022-10-12T08:47:47;12.38;;;8.70;;
51030;SDS011;37058;41.442;23.240;2022-10-12T08:50:30;17.75;;;10.02;;
51030;SDS011;37058;41.442;23.240;2022-10-12T08:53:21;19.42;;;10.68;;
51030;SDS011;37058;41.442;23.240;2022-10-12T08:56:24;11.32;;;7.88;;
51030;SDS011;37058;41.442;23.240;2022-10-12T08:58:57;12.77;;;8.07;;
51030;SDS011;37058;41.442;23.240;2022-10-12T09:04:57;13.02;;;7.63;;
51030;SDS011;37058;41.442;23.240;2022-10-12T09:07:47;11.07;;;7.78;;
51030;SDS011;37058;41.442;23.240;2022-10-12T09:10:37;10.43;;;7.88;;
51030;SDS011;37058;41.442;23.240;2022-10-12T09:13:40;12.68;;;6.90;;
51030;SDS011;37058;41.442;23.240;2022-10-12T09:16:43;12.65;;;7.05;;
51030;SDS011;37058;41.442;23.240;2022-10-12T09:19:20;12.38;;;8.25;;
51030;SDS011;37058;41.442;23.240;2022-10-12T09:22:07;13.77;;;8.40;;
51030;SDS011;37058;41.442;23.240;2022-10-12T09:24:54;10.20;;;6.93;;
51030;SDS011;37058;41.442;23.240;2022-10-12T09:27:38;10.30;;;7.15;;
51030;SDS011;37058;41.442;23.240;2022-10-12T09:30:13;9.45;;;7.03;;
51030;SDS011;37058;41.442;23.240;2022-10-12T09:35:46;10.55;;;7.68;;
51030;SDS011;37058;41.442;23.240;2022-10-12T09:38:19;11.07;;;7.72;;
51030;SDS011;37058;41.442;23.240;2022-10-12T09:40:58;11.30;;;7.20;;
51030;SDS011;37058;41.442;23.240;2022-10-12T09:43:39;9.52;;;6.43;;
51030;SDS011;37058;41.442;23.240;2022-10-12T09:46:12;10.60;;;6.78;;
51030;SDS011;37058;41.442;23.240;2022-10-12T09:48:59;9.88;;;6.30;;
51030;SDS011;37058;41.442;23.240;2022-10-12T09:51:32;12.50;;;6.45;;
51030;SDS011;37058;41.442;23.240;2022-10-12T09:54:05;10.10;;;7.25;;
51030;SDS011;37058;41.442;23.240;2022-10-12T09:56:46;9.52;;;6.88;;
51030;SDS011;37058;41.442;23.240;2022-10-12T10:04:52;9.95;;;7.00;;
51030;SDS011;37058;41.442;23.240;2022-10-12T10:07:31;10.00;;;7.15;;
51030;SDS011;37058;41.442;23.240;2022-10-12T10:10:08;10.95;;;7.25;;
51030;SDS011;37058;41.442;23.240;2022-10-12T10:12:59;9.48;;;6.50;;
51030;SDS011;37058;41.442;23.240;2022-10-12T10:15:36;15.68;;;7.95;;
51030;SDS011;37058;41.442;23.240;2022-10-12T10:18:22;9.10;;;6.50;;
51030;SDS011;37058;41.442;23.240;2022-10-12T10:21:11;12.27;;;7.80;;
51030;SDS011;37058;41.442;23.240;2022-10-12T10:23:57;10.77;;;7.45;;
51030;SDS011;37058;41.442;23.240;2022-10-12T10:29:34;12.10;;;7.25;;
51030;SDS011;37058;41.442;23.240;2022-10-12T10:32:19;10.02;;;6.95;;
51030;SDS011;37058;41.442;23.240;2022-10-12T10:34:59;11.25;;;7.97;;
51030;SDS011;37058;41.442;23.240;2022-10-12T10:37:50;12.00;;;7.05;;
51030;SDS011;37058;41.442;23.240;2022-10-12T10:40:27;10.00;;;6.57;;
51030;SDS011;37058;41.442;23.240;2022-10-12T10:43:05;11.30;;;7.38;;
51030;SDS011;37058;41.442;23.240;2022-10-12T10:46:24;11.00;;;7.15;;
51030;SDS011;37058;41.442;23.240;2022-10-12T10:49:01;9.30;;;6.88;;
51030;SDS011;37058;41.442;23.240;2022-10-12T10:51:47;10.48;;;8.00;;
51030;SDS011;37058;41.442;23.240;2022-10-12T10:54:27;11.07;;;6.93;;
51030;SDS011;37058;41.442;23.240;2022-10-12T10:57:09;12.50;;;6.75;;
51030;SDS011;37058;41.442;23.240;2022-10-12T10:59:53;9.77;;;6.95;;
51030;SDS011;37058;41.442;23.240;2022-10-12T11:02:45;9.98;;;7.20;;
51030;SDS011;37058;41.442;23.240;2022-10-12T11:05:34;9.82;;;6.53;;
51030;SDS011;37058;41.442;23.240;2022-10-12T11:08:26;9.77;;;6.80;;
51030;SDS011;37058;41.442;23.240;2022-10-12T11:11:13;11.07;;;7.05;;
51030;SDS011;37058;41.442;23.240;2022-10-12T11:14:01;10.88;;;6.50;;
51030;SDS011;37058;41.442;23.240;2022-10-12T11:16:54;10.85;;;6.18;;
51030;SDS011;37058;41.442;23.240;2022-10-12T11:23:15;8.48;;;5.55;;
51030;SDS011;37058;41.442;23.240;2022-10-12T11:26:28;10.13;;;6.30;;
51030;SDS011;37058;41.442;23.240;2022-10-12T11:29:32;9.95;;;6.15;;
51030;SDS011;37058;41.442;23.240;2022-10-12T11:32:28;10.60;;;6.13;;
51030;SDS011;37058;41.442;23.240;2022-10-12T11:35:05;8.30;;;5.75;;
51030;SDS011;37058;41.442;23.240;2022-10-12T11:37:46;9.70;;;5.82;;
51030;SDS011;37058;41.442;23.240;2022-10-12T11:40:41;7.93;;;5.93;;
51030;SDS011;37058;41.442;23.240;2022-10-12T11:44:01;10.27;;;6.53;;
51030;SDS011;37058;41.442;23.240;2022-10-12T11:46:57;9.82;;;6.07;;
51030;SDS011;37058;41.442;23.240;2022-10-12T11:52:59;12.77;;;7.70;;
51030;SDS011;37058;41.442;23.240;2022-10-12T11:58:50;13.10;;;6.93;;
51030;SDS011;37058;41.442;23.240;2022-10-12T12:01:46;10.32;;;6.10;;
51030;SDS011;37058;41.442;23.240;2022-10-12T12:04:42;8.50;;;5.60;;
51030;SDS011;37058;41.442;23.240;2022-10-12T12:18:30;9.10;;;5.65;;
51030;SDS011;37058;41.442;23.240;2022-10-12T12:21:21;12.55;;;5.32;;
51030;SDS011;37058;41.442;23.240;2022-10-12T12:23:57;9.45;;;4.97;;
51030;SDS011;37058;41.442;23.240;2022-10-12T12:26:32;7.72;;;5.00;;
51030;SDS011;37058;41.442;23.240;2022-10-12T12:29:08;6.95;;;5.20;;
51030;SDS011;37058;41.442;23.240;2022-10-12T12:31:55;6.97;;;4.07;;
51030;SDS011;37058;41.442;23.240;2022-10-12T12:34:32;6.57;;;4.65;;
51030;SDS011;37058;41.442;23.240;2022-10-12T12:37:19;6.18;;;4.53;;
51030;SDS011;37058;41.442;23.240;2022-10-12T12:40:03;9.20;;;4.38;;
51030;SDS011;37058;41.442;23.240;2022-10-12T12:42:48;7.65;;;4.82;;
51030;SDS011;37058;41.442;23.240;2022-10-12T12:48:09;7.22;;;4.43;;
51030;SDS011;37058;41.442;23.240;2022-10-12T12:50:57;5.30;;;3.78;;
51030;SDS011;37058;41.442;23.240;2022-10-12T12:53:39;7.00;;;4.15;;
51030;SDS011;37058;41.442;23.240;2022-10-12T12:56:31;8.60;;;4.38;;
51030;SDS011;37058;41.442;23.240;2022-10-12T13:02:59;5.97;;;4.30;;
51030;SDS011;37058;41.442;23.240;2022-10-12T13:09:46;6.85;;;3.65;;
51030;SDS011;37058;41.442;23.240;2022-10-12T13:15:47;4.35;;;3.17;;
51030;SDS011;37058;41.442;23.240;2022-10-12T13:18:50;5.50;;;4.00;;
51030;SDS011;37058;41.442;23.240;2022-10-12T13:21:37;5.45;;;4.05;;
51030;SDS011;37058;41.442;23.240;2022-10-12T13:27:17;7.95;;;4.95;;
51030;SDS011;37058;41.442;23.240;2022-10-12T13:30:22;4.43;;;3.13;;
51030;SDS011;37058;41.442;23.240;2022-10-12T13:34:08;7.05;;;4.20;;
51030;SDS011;37058;41.442;23.240;2022-10-12T13:36:48;7.95;;;3.13;;
51030;SDS011;37058;41.442;23.240;2022-10-12T13:39:37;8.52;;;3.35;;
51030;SDS011;37058;41.442;23.240;2022-10-12T13:42:13;7.30;;;4.20;;
51030;SDS011;37058;41.442;23.240;2022-10-12T13:44:50;4.40;;;3.08;;
51030;SDS011;37058;41.442;23.240;2022-10-12T13:47:32;6.65;;;3.40;;
51030;SDS011;37058;41.442;23.240;2022-10-12T13:50:14;7.25;;;4.00;;
51030;SDS011;37058;41.442;23.240;2022-10-12T13:52:53;9.65;;;4.10;;
51030;SDS011;37058;41.442;23.240;2022-10-12T13:55:25;9.07;;;3.90;;
51030;SDS011;37058;41.442;23.240;2022-10-12T13:58:18;6.05;;;3.70;;
51030;SDS011;37058;41.442;23.240;2022-10-12T14:00:56;5.00;;;3.13;;
51030;SDS011;37058;41.442;23.240;2022-10-12T14:03:34;6.57;;;3.40;;
51030;SDS011;37058;41.442;23.240;2022-10-12T14:06:28;5.70;;;3.22;;
51030;SDS011;37058;41.442;23.240;2022-10-12T14:09:10;7.75;;;3.15;;
51030;SDS011;37058;41.442;23.240;2022-10-12T14:11:45;4.93;;;3.30;;
51030;SDS011;37058;41.442;23.240;2022-10-12T14:14:27;7.68;;;5.93;;
51030;SDS011;37058;41.442;23.240;2022-10-12T14:17:14;6.80;;;3.85;;
51030;SDS011;37058;41.442;23.240;2022-10-12T14:19:49;9.20;;;5.30;;
51030;SDS011;37058;41.442;23.240;2022-10-12T14:22:25;14.27;;;6.00;;
51030;SDS011;37058;41.442;23.240;2022-10-12T14:25:13;8.43;;;5.15;;
51030;SDS011;37058;41.442;23.240;2022-10-12T14:28:00;7.82;;;3.65;;
51030;SDS011;37058;41.442;23.240;2022-10-12T14:30:55;7.00;;;3.95;;
51030;SDS011;37058;41.442;23.240;2022-10-12T14:33:26;6.15;;;3.88;;
51030;SDS011;37058;41.442;23.240;2022-10-12T14:39:02;7.22;;;4.72;;
51030;SDS011;37058;41.442;23.240;2022-10-12T14:41:43;5.72;;;4.45;;
51030;SDS011;37058;41.442;23.240;2022-10-12T14:44:40;7.07;;;4.15;;
51030;SDS011;37058;41.442;23.240;2022-10-12T14:47:31;7.95;;;4.53;;
51030;SDS011;37058;41.442;23.240;2022-10-12T14:50:15;5.25;;;3.47;;
51030;SDS011;37058;41.442;23.240;2022-10-12T14:52:52;6.90;;;4.03;;
51030;SDS011;37058;41.442;23.240;2022-10-12T14:55:28;7.80;;;4.80;;
51030;SDS011;37058;41.442;23.240;2022-10-12T14:58:15;6.35;;;4.43;;
51030;SDS011;37058;41.442;23.240;2022-10-12T15:00:51;7.78;;;4.88;;
51030;SDS011;37058;41.442;23.240;2022-10-12T15:03:26;6.53;;;4.90;;
51030;SDS011;37058;41.442;23.240;2022-10-12T15:06:02;8.43;;;4.65;;
51030;SDS011;37058;41.442;23.240;2022-10-12T15:08:36;7.05;;;4.68;;
51030;SDS011;37058;41.442;23.240;2022-10-12T15:11:16;7.95;;;4.82;;
51030;SDS011;37058;41.442;23.240;2022-10-12T15:13:58;11.75;;;4.60;;
51030;SDS011;37058;41.442;23.240;2022-10-12T15:16:33;6.43;;;4.97;;
51030;SDS011;37058;41.442;23.240;2022-10-12T15:19:14;11.32;;;5.35;;
51030;SDS011;37058;41.442;23.240;2022-10-12T15:21:49;14.60;;;7.53;;
51030;SDS011;37058;41.442;23.240;2022-10-12T15:24:25;7.22;;;5.10;;
51030;SDS011;37058;41.442;23.240;2022-10-12T15:27:06;6.78;;;4.40;;
51030;SDS011;37058;41.442;23.240;2022-10-12T15:29:46;11.88;;;5.15;;
51030;SDS011;37058;41.442;23.240;2022-10-12T15:32:19;7.38;;;5.25;;
51030;SDS011;37058;41.442;23.240;2022-10-12T15:35:05;10.93;;;6.35;;
51030;SDS011;37058;41.442;23.240;2022-10-12T15:37:49;7.53;;;4.75;;
51030;SDS011;37058;41.442;23.240;2022-10-12T15:40:22;12.35;;;7.47;;
51030;SDS011;37058;41.442;23.240;2022-10-12T15:43:02;14.93;;;8.88;;
51030;SDS011;37058;41.442;23.240;2022-10-12T15:45:44;17.40;;;9.13;;
51030;SDS011;37058;41.442;23.240;2022-10-12T15:48:25;18.67;;;9.60;;
51030;SDS011;37058;41.442;23.240;2022-10-12T15:51:00;18.48;;;9.32;;
51030;SDS011;37058;41.442;23.240;2022-10-12T15:53:35;14.02;;;9.38;;
51030;SDS011;37058;41.442;23.240;2022-10-12T15:56:12;13.10;;;7.07;;
51030;SDS011;37058;41.442;23.240;2022-10-12T15:58:43;12.38;;;7.68;;
51030;SDS011;37058;41.442;23.240;2022-10-12T16:01:19;12.13;;;9.60;;
51030;SDS011;37058;41.442;23.240;2022-10-12T16:03:54;13.50;;;8.45;;
51030;SDS011;37058;41.442;23.240;2022-10-12T16:06:30;12.88;;;6.85;;
51030;SDS011;37058;41.442;23.240;2022-10-12T16:09:05;12.95;;;8.10;;
51030;SDS011;37058;41.442;23.240;2022-10-12T16:11:40;20.45;;;9.50;;
51030;SDS011;37058;41.442;23.240;2022-10-12T16:14:14;12.90;;;8.45;;
51030;SDS011;37058;41.442;23.240;2022-10-12T16:16:42;11.90;;;7.97;;
51030;SDS011;37058;41.442;23.240;2022-10-12T16:19:15;14.68;;;7.68;;
51030;SDS011;37058;41.442;23.240;2022-10-12T16:21:50;12.65;;;6.53;;
51030;SDS011;37058;41.442;23.240;2022-10-12T16:24:25;9.43;;;6.63;;
51030;SDS011;37058;41.442;23.240;2022-10-12T16:26:57;11.02;;;7.93;;
51030;SDS011;37058;41.442;23.240;2022-10-12T16:29:40;12.60;;;7.55;;